createdAt,value
2022-11-07T00:01:38.155Z,100281.34
2022-11-07T00:04:05.083Z,100293.75
2022-11-07T00:06:31.828Z,100293.81
2022-11-07T00:08:59.141Z,100289.44
2022-11-07T00:11:25.763Z,100287.66
2022-11-07T00:13:52.412Z,100292.88
2022-11-07T00:16:22.684Z,100293.03
2022-11-07T00:18:49.484Z,100290.31
2022-11-07T00:21:16.482Z,100285.84
2022-11-07T00:23:43.313Z,100299.06
2022-11-07T00:26:12.394Z,100302.56
2022-11-07T00:28:41.175Z,100294.53
2022-11-07T00:31:10.894Z,100304.19
2022-11-07T00:33:38.386Z,100305.31
2022-11-07T00:36:05.497Z,100306.09
2022-11-07T00:38:32.193Z,100311.66
2022-11-07T00:41:00.630Z,100305.50
2022-11-07T00:43:27.787Z,100310.03
2022-11-07T00:45:54.431Z,100308.38
2022-11-07T00:48:21.010Z,100304.94
2022-11-07T00:50:47.708Z,100304.03
2022-11-07T00:53:14.546Z,100297.75
2022-11-07T00:55:41.366Z,100309.19
2022-11-07T00:58:12.681Z,100307.31
2022-11-07T01:00:40.525Z,100302.88
2022-11-07T01:03:25.767Z,100304.69
2022-11-07T01:05:59.536Z,100316.09
2022-11-07T01:08:26.938Z,100306.38
2022-11-07T01:10:54.263Z,100310.75
2022-11-07T01:13:20.906Z,100306.28
2022-11-07T01:15:47.509Z,100315.13
2022-11-07T01:18:14.100Z,100317.78
2022-11-07T01:20:41.191Z,100312.50
2022-11-07T01:23:08.482Z,100322.19
2022-11-07T01:25:39.323Z,100319.50
2022-11-07T01:28:06.671Z,100329.16
2022-11-07T01:30:33.320Z,100314.94
2022-11-07T01:32:59.968Z,100320.16
2022-11-07T01:35:26.649Z,100320.16
2022-11-07T01:37:53.284Z,100319.16
2022-11-07T01:40:19.997Z,100312.09
2022-11-07T01:42:46.617Z,100315.63
2022-11-07T01:45:25.221Z,100313.88
2022-11-07T01:47:53.092Z,100302.38
2022-11-07T01:50:19.833Z,100315.66
2022-11-07T01:52:47.991Z,100303.41
2022-11-07T01:55:20.694Z,100308.72
2022-11-07T01:57:51.650Z,100307.81
2022-11-07T02:00:20.249Z,100297.19
2022-11-07T02:02:49.535Z,100317.47
2022-11-07T02:05:21.511Z,100314.81
2022-11-07T02:07:48.355Z,100313.75
2022-11-07T02:10:15.828Z,100313.78
2022-11-07T02:12:42.983Z,100313.69
2022-11-07T02:15:10.667Z,100322.47
2022-11-07T02:17:37.379Z,100319.75
2022-11-07T02:20:04.345Z,100319.78
2022-11-07T02:22:51.813Z,100318.91
2022-11-07T02:25:19.690Z,100317.97
2022-11-07T02:27:48.334Z,100322.25
2022-11-07T02:30:19.637Z,100326.75
2022-11-07T02:32:46.443Z,100332.09
2022-11-07T02:35:41.841Z,100330.34
2022-11-07T02:38:18.535Z,100321.56
2022-11-07T02:40:51.717Z,100327.84
2022-11-07T02:43:20.484Z,100320.88
2022-11-07T02:45:47.892Z,100327.91
2022-11-07T02:48:14.547Z,100321.88
2022-11-07T02:50:42.286Z,100321.75
2022-11-07T02:53:08.947Z,100323.59
2022-11-07T02:55:35.557Z,100323.66
2022-11-07T02:58:02.172Z,100331.56
2022-11-07T03:00:29.135Z,100327.81
2022-11-07T03:02:55.872Z,100326.84
2022-11-07T03:05:22.551Z,100327.69
2022-11-07T03:07:49.875Z,100338.25
2022-11-07T03:10:17.165Z,100339.97
2022-11-07T03:12:43.756Z,100334.72
2022-11-07T03:15:14.385Z,100342.75
2022-11-07T03:17:41.774Z,100340.03
2022-11-07T03:20:09.005Z,100345.25
2022-11-07T03:22:38.892Z,100348.00
2022-11-07T03:25:06.525Z,100350.50
2022-11-07T03:27:35.963Z,100352.34
2022-11-07T03:30:02.611Z,100340.91
2022-11-07T03:32:29.200Z,100340.94
2022-11-07T03:34:55.774Z,100341.78
2022-11-07T03:37:22.379Z,100345.28
2022-11-07T03:39:48.981Z,100337.31
2022-11-07T03:42:15.630Z,100342.47
2022-11-07T03:44:42.205Z,100335.50
2022-11-07T03:47:08.821Z,100341.75
2022-11-07T03:49:35.504Z,100349.78
2022-11-07T03:52:02.080Z,100346.19
2022-11-07T03:54:28.699Z,100340.22
2022-11-07T03:56:55.279Z,100339.19
2022-11-07T03:59:21.966Z,100342.75
2022-11-07T04:01:48.702Z,100344.41
2022-11-07T04:04:15.452Z,100355.78
2022-11-07T04:06:42.075Z,100353.81
2022-11-07T04:09:08.996Z,100356.44
2022-11-07T04:11:54.115Z,100358.00
2022-11-07T04:14:39.439Z,100360.66
2022-11-07T04:17:19.394Z,100361.50
2022-11-07T04:19:51.448Z,100368.44
2022-11-07T04:22:18.763Z,100373.63
2022-11-07T04:24:46.176Z,100370.91
2022-11-07T04:27:32.697Z,100377.97
2022-11-07T04:29:59.374Z,100378.00
2022-11-07T04:32:25.976Z,100373.66
2022-11-07T04:34:52.647Z,100367.50
2022-11-07T04:37:19.615Z,100357.69
2022-11-07T04:39:46.340Z,100363.97
2022-11-07T04:42:13.122Z,100355.22
2022-11-07T04:44:39.772Z,100356.94
2022-11-07T04:47:06.486Z,100356.03
2022-11-07T04:49:42.997Z,100359.56
2022-11-07T04:52:16.941Z,100366.63
2022-11-07T04:54:43.568Z,100363.22
2022-11-07T04:57:10.211Z,100361.38
2022-11-07T04:59:36.916Z,100352.47
2022-11-07T05:02:05.308Z,100354.28
2022-11-07T05:04:32.056Z,100350.03
2022-11-07T05:06:58.640Z,100355.19
2022-11-07T05:09:25.544Z,100356.94
2022-11-07T05:11:52.190Z,100355.22
2022-11-07T05:14:18.861Z,100358.78
2022-11-07T05:16:45.639Z,100351.72
2022-11-07T05:19:16.829Z,100355.19
2022-11-07T05:21:44.292Z,100363.09
2022-11-07T05:24:11.746Z,100363.84
2022-11-07T05:26:38.610Z,100359.66
2022-11-07T05:29:10.734Z,100362.19
2022-11-07T05:31:37.557Z,100361.44
2022-11-07T05:34:08.694Z,100363.16
2022-11-07T05:36:41.774Z,100362.22
2022-11-07T05:39:10.105Z,100366.53
2022-11-07T05:41:36.725Z,100372.63
2022-11-07T05:44:03.407Z,100369.13
2022-11-07T05:46:30.211Z,100373.56
2022-11-07T05:49:00.836Z,100370.25
2022-11-07T05:51:31.167Z,100365.03
2022-11-07T05:53:57.864Z,100373.88
2022-11-07T05:56:24.558Z,100365.13
2022-11-07T05:58:54.339Z,100379.00
2022-11-07T06:01:21.367Z,100375.56
2022-11-07T06:03:48.116Z,100371.16
2022-11-07T06:06:14.734Z,100364.31
2022-11-07T06:08:44.735Z,100351.31
2022-11-07T06:11:14.105Z,100359.25
2022-11-07T06:13:41.530Z,100368.81
2022-11-07T06:16:08.570Z,100371.50
2022-11-07T06:18:43.944Z,100369.91
2022-11-07T06:21:11.070Z,100375.28
2022-11-07T06:23:43.740Z,100376.38
2022-11-07T06:26:17.968Z,100375.44
2022-11-07T06:28:45.179Z,100377.22
2022-11-07T06:31:15.822Z,100372.00
2022-11-07T06:33:42.854Z,100373.81
2022-11-07T06:36:12.268Z,100380.88
2022-11-07T06:38:42.666Z,100376.56
2022-11-07T06:41:14.743Z,100375.78
2022-11-07T06:43:44.421Z,100383.66
2022-11-07T06:46:13.802Z,100387.28
2022-11-07T06:48:40.775Z,100390.03
2022-11-07T06:51:09.965Z,100381.31
2022-11-07T06:53:39.446Z,100384.00
2022-11-07T06:56:07.670Z,100398.06
2022-11-07T06:58:34.752Z,100392.00
2022-11-07T07:01:08.105Z,100387.66
2022-11-07T07:03:43.388Z,100392.00
2022-11-07T07:06:13.737Z,100389.38
2022-11-07T07:08:43.493Z,100393.84
2022-11-07T07:11:13.007Z,100393.94
2022-11-07T07:13:40.166Z,100404.59
2022-11-07T07:16:07.613Z,100401.97
2022-11-07T07:18:35.492Z,100398.47
2022-11-07T07:21:11.090Z,100400.31
2022-11-07T07:23:41.311Z,100400.38
2022-11-07T07:26:23.065Z,100406.53
2022-11-07T07:28:49.911Z,100403.09
2022-11-07T07:31:23.112Z,100412.84
2022-11-07T07:33:50.111Z,100412.03
2022-11-07T07:36:20.728Z,100412.03
2022-11-07T07:38:48.893Z,100421.75
2022-11-07T07:41:15.967Z,100426.19
2022-11-07T07:43:42.741Z,100430.50
2022-11-07T07:46:14.401Z,100434.19
2022-11-07T07:48:41.325Z,100435.09
2022-11-07T07:51:08.092Z,100435.16
2022-11-07T07:53:34.893Z,100436.13
2022-11-07T07:56:05.560Z,100447.53
2022-11-07T07:58:32.727Z,100448.44
2022-11-07T08:00:59.665Z,100446.75
2022-11-07T08:03:32.232Z,100448.53
2022-11-07T08:06:07.187Z,100454.72
2022-11-07T08:08:38.066Z,100452.13
2022-11-07T08:11:07.846Z,100460.94
2022-11-07T08:13:34.676Z,100453.03
2022-11-07T08:16:03.441Z,100460.94
2022-11-07T08:18:30.387Z,100458.38
2022-11-07T08:20:57.409Z,100457.44
2022-11-07T08:23:24.655Z,100458.41
2022-11-07T08:25:56.629Z,100457.50
2022-11-07T08:28:27.405Z,100454.88
2022-11-07T08:30:57.790Z,100459.25
2022-11-07T08:33:24.786Z,100464.53
2022-11-07T08:35:51.740Z,100465.44
2022-11-07T08:38:20.637Z,100456.59
2022-11-07T08:40:47.992Z,100468.09
2022-11-07T08:43:17.510Z,100467.28
2022-11-07T08:45:45.654Z,100473.50
2022-11-07T08:48:14.770Z,100466.38
2022-11-07T08:50:41.436Z,100471.69
2022-11-07T08:53:09.192Z,100458.44
2022-11-07T08:55:35.903Z,100460.25
2022-11-07T08:58:07.891Z,100465.56
2022-11-07T09:00:35.623Z,100474.44
2022-11-07T09:05:56.756Z,100475.38
2022-11-07T09:08:30.885Z,100471.88
2022-11-07T09:11:02.436Z,100476.31
2022-11-07T09:13:33.047Z,100462.16
2022-11-07T09:16:01.551Z,100476.34
2022-11-07T09:18:28.833Z,100468.41
2022-11-07T09:20:58.802Z,100481.66
2022-11-07T09:23:29.134Z,100466.66
2022-11-07T09:25:58.951Z,100473.69
2022-11-07T09:28:25.672Z,100484.34
2022-11-07T09:30:56.630Z,100476.41
2022-11-07T09:33:23.967Z,100483.50
2022-11-07T09:35:50.914Z,100494.06
2022-11-07T09:38:17.612Z,100494.97
2022-11-07T09:40:49.460Z,100494.97
2022-11-07T09:43:31.059Z,100493.25
2022-11-07T09:46:05.243Z,100498.50
2022-11-07T09:49:01.077Z,100505.56
2022-11-07T09:51:39.110Z,100514.41
2022-11-07T09:54:27.648Z,100509.06
2022-11-07T09:56:55.198Z,100519.66
2022-11-07T09:59:26.086Z,100524.09
2022-11-07T10:01:52.937Z,100528.50
2022-11-07T10:04:26.180Z,100530.28
2022-11-07T10:06:57.790Z,100532.94
2022-11-07T10:09:54.207Z,100540.84
2022-11-07T10:12:44.157Z,100520.56
2022-11-07T10:15:27.602Z,100529.38
2022-11-07T10:17:54.365Z,100543.53
2022-11-07T10:20:42.412Z,100539.13
2022-11-07T10:23:40.234Z,100543.53
2022-11-07T10:26:10.533Z,100536.50
2022-11-07T10:28:53.224Z,100541.75
2022-11-07T10:31:20.024Z,100538.25
2022-11-07T10:34:07.663Z,100532.09
2022-11-07T10:36:34.341Z,100533.97
2022-11-07T10:39:01.810Z,100531.34
2022-11-07T10:41:31.670Z,100529.59
2022-11-07T10:44:09.826Z,100518.13
2022-11-07T10:46:39.889Z,100532.34
2022-11-07T10:49:24.739Z,100528.81
2022-11-07T10:51:51.985Z,100531.47
2022-11-07T10:54:29.632Z,100530.56
2022-11-07T10:57:07.966Z,100535.03
2022-11-07T10:59:37.300Z,100538.56
2022-11-07T11:02:19.409Z,100535.00
2022-11-07T11:04:51.801Z,100532.38
2022-11-07T11:07:21.808Z,100533.28
2022-11-07T11:09:56.866Z,100528.84
2022-11-07T11:12:34.253Z,100526.16
2022-11-07T11:15:11.398Z,100533.28
2022-11-07T11:17:38.112Z,100519.97
2022-11-07T11:20:06.635Z,100527.94
2022-11-07T11:22:40.777Z,100531.50
2022-11-07T11:25:10.415Z,100516.41
2022-11-07T11:27:37.743Z,100517.31
2022-11-07T11:30:08.083Z,100526.19
2022-11-07T11:32:57.333Z,100512.88
2022-11-07T11:35:42.382Z,100524.34
2022-11-07T11:38:15.165Z,100519.06
2022-11-07T11:40:46.994Z,100510.22
2022-11-07T11:43:24.998Z,100509.34
2022-11-07T11:46:00.669Z,100515.53
2022-11-07T11:48:49.495Z,100503.13
2022-11-07T11:51:46.287Z,100522.63
2022-11-07T11:54:15.630Z,100518.16
2022-11-07T11:56:52.131Z,100510.19
2022-11-07T11:59:56.426Z,100511.13
2022-11-07T12:02:51.434Z,100510.22
2022-11-07T12:05:45.954Z,100507.56
2022-11-07T12:08:24.912Z,100513.75
2022-11-07T12:11:02.085Z,100511.09
2022-11-07T12:13:56.358Z,100505.78
2022-11-07T12:16:38.537Z,100496.94
2022-11-07T12:19:28.987Z,100488.94
2022-11-07T12:22:07.309Z,100497.81
2022-11-07T12:24:46.114Z,100500.47
2022-11-07T12:27:22.754Z,100499.59
2022-11-07T12:30:06.327Z,100493.34
2022-11-07T12:33:12.830Z,100497.78
2022-11-07T12:35:52.280Z,100504.88
2022-11-07T12:38:45.674Z,100497.78
2022-11-07T12:41:34.890Z,100502.25
2022-11-07T12:44:37.000Z,100504.91
2022-11-07T12:47:39.679Z,100518.19
2022-11-07T12:50:24.631Z,100516.41
2022-11-07T12:53:13.631Z,100511.06
2022-11-07T12:55:59.032Z,100510.19
2022-11-07T12:58:29.649Z,100511.09
2022-11-07T13:01:04.522Z,100509.34
2022-11-07T13:03:56.314Z,100513.75
2022-11-07T13:06:50.608Z,100505.78
2022-11-07T13:09:41.718Z,100500.41
2022-11-07T13:12:13.451Z,100511.97
2022-11-07T13:14:44.408Z,100503.13
2022-11-07T13:17:15.858Z,100507.50
2022-11-07T13:19:58.483Z,100502.22
2022-11-07T13:22:55.966Z,100501.34
2022-11-07T13:25:26.139Z,100496.00
2022-11-07T13:27:55.870Z,100501.34
2022-11-07T13:30:23.948Z,100501.34
2022-11-07T13:32:51.729Z,100507.53
2022-11-07T13:35:23.793Z,100504.88
2022-11-07T13:37:56.940Z,100505.78
2022-11-07T13:40:27.443Z,100509.31
2022-11-07T13:42:58.255Z,100506.66
2022-11-07T13:45:33.800Z,100500.44
2022-11-07T13:48:16.754Z,100507.53
2022-11-07T13:51:28.159Z,100503.13
2022-11-07T13:54:16.772Z,100501.34
2022-11-07T13:56:46.795Z,100503.09
2022-11-07T13:59:44.574Z,100504.88
2022-11-07T14:02:23.111Z,100498.63
2022-11-07T14:05:14.829Z,100488.00
2022-11-07T14:07:44.071Z,100497.78
2022-11-07T14:10:24.466Z,100495.13
2022-11-07T14:13:00.685Z,100489.78
2022-11-07T14:15:27.656Z,100498.63
2022-11-07T14:17:55.248Z,100491.56
2022-11-07T14:20:22.444Z,100492.44
2022-11-07T14:22:54.932Z,100495.09
2022-11-07T14:25:28.447Z,100493.31
2022-11-07T14:27:56.691Z,100500.47
2022-11-07T14:30:27.607Z,100498.69
2022-11-07T14:32:57.397Z,100496.88
2022-11-07T14:35:30.361Z,100496.03
2022-11-07T14:38:11.702Z,100495.97
2022-11-07T14:40:38.978Z,100488.91
2022-11-07T14:43:06.096Z,100491.59
2022-11-07T14:46:10.232Z,100501.31
2022-11-07T14:49:19.968Z,100504.00
2022-11-07T14:52:26.594Z,100499.56
2022-11-07T14:55:02.786Z,100490.69
2022-11-07T14:57:32.645Z,100490.69
2022-11-07T15:00:01.850Z,100496.91
2022-11-07T15:02:31.471Z,100493.38
2022-11-07T15:05:06.862Z,100498.66
2022-11-07T15:07:46.768Z,100501.34
2022-11-07T15:10:24.643Z,100494.25
2022-11-07T15:12:54.465Z,100492.50
2022-11-07T15:15:24.629Z,100491.59
2022-11-07T15:17:59.053Z,100491.63
2022-11-07T15:20:35.475Z,100488.06
2022-11-07T15:23:13.431Z,100489.84
2022-11-07T15:25:53.551Z,100485.41
2022-11-07T15:28:25.298Z,100481.84
2022-11-07T15:31:03.386Z,100495.16
2022-11-07T15:33:58.981Z,100497.81
2022-11-07T15:37:12.286Z,100502.25
2022-11-07T15:40:19.637Z,100501.34
2022-11-07T15:42:46.845Z,100505.78
2022-11-07T15:45:23.426Z,100502.25
2022-11-07T15:47:52.651Z,100516.41
2022-11-07T15:50:22.429Z,100514.66
2022-11-07T15:52:49.465Z,100507.56
2022-11-07T15:55:18.820Z,100515.53
2022-11-07T15:57:47.251Z,100514.66
2022-11-07T16:00:18.655Z,100522.63
2022-11-07T16:02:46.343Z,100520.84
2022-11-07T16:05:14.224Z,100521.75
2022-11-07T16:07:42.378Z,100522.63
2022-11-07T16:10:21.775Z,100509.34
2022-11-07T16:12:50.087Z,100512.88
2022-11-07T16:15:18.138Z,100518.22
2022-11-07T16:17:45.252Z,100517.31
2022-11-07T16:20:25.394Z,100527.03
2022-11-07T16:22:55.306Z,100522.66
2022-11-07T16:25:25.763Z,100528.84
2022-11-07T16:27:59.642Z,100521.75
2022-11-07T16:30:33.660Z,100525.28
2022-11-07T16:33:00.896Z,100535.03
2022-11-07T16:35:40.207Z,100531.50
2022-11-07T16:38:17.456Z,100535.91
2022-11-07T16:40:44.857Z,100534.16
2022-11-07T16:43:11.983Z,100534.16
2022-11-07T16:46:28.218Z,100532.38
2022-11-07T16:49:04.667Z,100535.03
2022-11-07T16:51:33.001Z,100535.94
2022-11-07T16:54:02.888Z,100527.06
2022-11-07T16:56:31.764Z,100527.06
2022-11-07T17:02:45.976Z,100530.59
2022-11-07T17:05:13.062Z,100532.38
2022-11-07T17:07:46.984Z,100536.81
2022-11-07T17:10:16.204Z,100544.81
2022-11-07T17:12:43.253Z,100535.06
2022-11-07T17:15:10.637Z,100537.72
2022-11-07T17:18:01.368Z,100545.69
2022-11-07T17:20:50.393Z,100539.50
2022-11-07T17:23:18.202Z,100545.66
2022-11-07T17:25:52.660Z,100542.16
2022-11-07T17:28:20.185Z,100552.78
2022-11-07T17:30:47.245Z,100545.69
2022-11-07T17:33:14.623Z,100548.34
2022-11-07T17:35:41.826Z,100551.00
2022-11-07T17:38:14.061Z,100551.88
2022-11-07T17:40:42.424Z,100550.13
2022-11-07T17:43:09.309Z,100555.44
2022-11-07T17:45:36.722Z,100552.78
2022-11-07T17:48:03.739Z,100548.38
2022-11-07T17:50:30.656Z,100555.44
2022-11-07T17:52:59.492Z,100553.66
2022-11-07T17:55:26.256Z,100554.56
2022-11-07T17:57:53.572Z,100559.88
2022-11-07T18:00:23.614Z,100551.91
2022-11-07T18:02:52.303Z,100556.31
2022-11-07T18:05:20.836Z,100560.75
2022-11-07T18:07:50.071Z,100554.53
2022-11-07T18:10:16.941Z,100549.22
2022-11-07T18:12:44.017Z,100543.91
2022-11-07T18:15:14.295Z,100550.97
2022-11-07T18:17:41.437Z,100550.09
2022-11-07T18:20:09.329Z,100544.81
2022-11-07T18:22:37.295Z,100542.16
2022-11-07T18:25:08.028Z,100545.69
2022-11-07T18:27:34.880Z,100547.47
2022-11-07T18:30:03.081Z,100542.16
2022-11-07T18:32:35.823Z,100547.47
2022-11-07T18:35:04.639Z,100555.44
2022-11-07T18:37:31.503Z,100550.13
2022-11-07T18:39:58.472Z,100545.66
2022-11-07T18:42:25.130Z,100539.47
2022-11-07T18:44:52.141Z,100543.00
2022-11-07T18:47:19.000Z,100540.38
2022-11-07T18:49:45.855Z,100544.78
2022-11-07T18:52:12.774Z,100552.78
2022-11-07T18:54:39.603Z,100547.47
2022-11-07T18:57:06.289Z,100546.56
2022-11-07T18:59:33.222Z,100548.34
2022-11-07T19:02:00.070Z,100549.22
2022-11-07T19:04:26.763Z,100551.03
2022-11-07T19:06:59.187Z,100543.94
2022-11-07T19:09:30.553Z,100556.34
2022-11-07T19:11:58.051Z,100557.22
2022-11-07T19:14:25.874Z,100555.44
2022-11-07T19:16:53.121Z,100553.66
2022-11-07T19:19:24.538Z,100558.97
2022-11-07T19:21:51.434Z,100556.34
2022-11-07T19:24:18.284Z,100554.56
2022-11-07T19:26:45.293Z,100547.47
2022-11-07T19:29:12.173Z,100555.44
2022-11-07T19:31:38.873Z,100557.22
2022-11-07T19:34:05.975Z,100546.56
2022-11-07T19:36:33.686Z,100550.13
2022-11-07T19:39:03.186Z,100547.44
2022-11-07T19:41:30.295Z,100557.19
2022-11-07T19:43:59.154Z,100558.09
2022-11-07T19:46:26.074Z,100554.53
2022-11-07T19:48:55.040Z,100553.66
2022-11-07T19:51:23.117Z,100546.56
2022-11-07T19:53:57.465Z,100550.13
2022-11-07T19:56:27.192Z,100555.44
2022-11-07T19:58:54.833Z,100557.22
2022-11-07T20:01:26.726Z,100558.06
2022-11-07T20:03:56.787Z,100551.88
2022-11-07T20:06:30.553Z,100557.22
2022-11-07T20:08:57.557Z,100566.09
2022-11-07T20:11:27.670Z,100559.88
2022-11-07T20:14:00.049Z,100559.84
2022-11-07T20:16:28.763Z,100562.50
2022-11-07T20:18:55.746Z,100558.09
2022-11-07T20:21:23.404Z,100561.59
2022-11-07T20:23:53.752Z,100564.28
2022-11-07T20:26:22.166Z,100557.16
2022-11-07T20:28:49.273Z,100558.94
2022-11-07T20:31:21.557Z,100558.06
2022-11-07T20:33:48.570Z,100566.91
2022-11-07T20:36:15.941Z,100569.56
2022-11-07T20:38:43.967Z,100573.94
2022-11-07T20:41:14.822Z,100574.84
2022-11-07T20:43:44.064Z,100567.78
2022-11-07T20:46:15.192Z,100571.28
2022-11-07T20:48:43.970Z,100573.06
2022-11-07T20:51:19.908Z,100573.94
2022-11-07T20:53:50.371Z,100574.84
2022-11-07T20:56:19.587Z,100575.72
2022-11-07T20:58:46.668Z,100580.13
2022-11-07T21:01:19.486Z,100584.53
2022-11-07T21:03:47.979Z,100576.56
2022-11-07T21:06:15.270Z,100576.59
2022-11-07T21:08:46.002Z,100576.56
2022-11-07T21:11:13.870Z,100571.25
2022-11-07T21:13:42.038Z,100573.91
2022-11-07T21:16:09.637Z,100576.56
2022-11-07T21:18:37.218Z,100580.06
2022-11-07T21:21:12.232Z,100578.28
2022-11-07T21:23:38.899Z,100586.22
2022-11-07T21:26:08.202Z,100580.97
2022-11-07T21:28:35.509Z,100587.06
2022-11-07T21:31:04.693Z,100581.75
2022-11-07T21:33:32.020Z,100586.09
2022-11-07T21:35:58.699Z,100584.31
2022-11-07T21:38:25.695Z,100578.97
2022-11-07T21:40:52.791Z,100569.22
2022-11-07T21:43:20.068Z,100578.06
2022-11-07T21:45:46.936Z,100567.47
2022-11-07T21:48:13.737Z,100563.03
2022-11-07T21:50:51.892Z,100567.38
2022-11-07T21:53:19.234Z,100566.53
2022-11-07T21:55:46.088Z,100564.78
2022-11-07T21:58:12.729Z,100560.38
2022-11-07T22:00:39.489Z,100556.88
2022-11-07T22:03:06.203Z,100546.34
2022-11-07T22:05:32.918Z,100553.41
2022-11-07T22:07:59.898Z,100549.84
2022-11-07T22:10:26.554Z,100548.06
2022-11-07T22:12:53.660Z,100548.03
2022-11-07T22:15:20.334Z,100547.16
2022-11-07T22:17:46.924Z,100546.22
2022-11-07T22:20:13.534Z,100544.50
2022-11-07T22:22:40.397Z,100542.72
2022-11-07T22:25:07.286Z,100543.56
2022-11-07T22:27:34.151Z,100541.75
2022-11-07T22:30:01.000Z,100539.97
2022-11-07T22:32:27.721Z,100534.72
2022-11-07T22:34:55.573Z,100538.25
2022-11-07T22:37:22.290Z,100532.00
2022-11-07T22:39:49.388Z,100537.28
2022-11-07T22:42:21.022Z,100526.66
2022-11-07T22:44:51.493Z,100532.84
2022-11-07T22:47:18.064Z,100526.72
2022-11-07T22:49:44.732Z,100525.78
2022-11-07T22:52:11.628Z,100517.78
2022-11-07T22:54:38.311Z,100521.31
2022-11-07T22:57:04.911Z,100516.84
2022-11-07T22:59:31.645Z,100512.44
2022-11-07T23:01:58.414Z,100511.53
2022-11-07T23:04:30.106Z,100507.91
2022-11-07T23:06:59.380Z,100511.44
2022-11-07T23:09:26.168Z,100515.84
2022-11-07T23:11:52.904Z,100514.03
2022-11-07T23:14:20.789Z,100514.97
2022-11-07T23:16:52.131Z,100518.50
2022-11-07T23:19:21.427Z,100514.94
2022-11-07T23:21:48.939Z,100518.50
2022-11-07T23:24:15.586Z,100512.31
2022-11-07T23:26:42.550Z,100516.66
2022-11-07T23:29:15.702Z,100513.06
2022-11-07T23:31:44.362Z,100506.94
2022-11-07T23:34:11.740Z,100506.94
2022-11-07T23:36:40.616Z,100500.75
2022-11-07T23:39:08.213Z,100498.03
2022-11-07T23:41:34.923Z,100499.78
2022-11-07T23:44:02.222Z,100494.41
2022-11-07T23:46:47.707Z,100491.78
2022-11-07T23:49:33.021Z,100491.75
2022-11-07T23:51:59.744Z,100492.66
2022-11-07T23:54:44.919Z,100494.34
2022-11-07T23:57:11.556Z,100499.69
2022-11-07T23:59:56.719Z,100492.59
